Time,TemperatureF,DewpointF,PressureIn,WindDirection,WindDirectionDegrees,WindSpeedMPH,WindSpeedGustMPH,Humidity,HourlyPrecipIn,Conditions,Clouds,dailyrainin,SoftwareType,DateUTC
2013-06-20 00:00:00,73.2,59.8,29.49,SE,136,8.0,8.0,63,0.00,,,0.00,Wunderground v.1.13,2013-06-20 06:00:00,
2013-06-20 00:05:00,73.0,59.7,29.49,SSE,157,4.0,14.0,63,0.00,,,0.00,Wunderground v.1.13,2013-06-20 06:05:00,
2013-06-20 00:09:00,72.8,59.9,29.49,SSE,152,3.0,18.0,64,0.00,,,0.00,Wunderground v.1.13,2013-06-20 06:09:00,
2013-06-20 00:14:00,72.7,59.8,29.49,SSE,165,5.0,5.0,64,0.00,,,0.00,Wunderground v.1.13,2013-06-20 06:14:00,
2013-06-20 00:19:00,72.3,59.9,29.49,SSE,155,4.0,4.0,65,0.00,,,0.00,Wunderground v.1.13,2013-06-20 06:19:00,
2013-06-20 00:25:00,72.1,60.1,29.49,South,172,3.0,14.0,66,0.00,,,0.00,Wunderground v.1.13,2013-06-20 06:25:00,
2013-06-20 00:30:00,72.0,60.0,29.49,SSE,148,5.0,5.0,66,0.00,,,0.00,Wunderground v.1.13,2013-06-20 06:30:00,
2013-06-20 00:34:00,71.8,60.2,29.48,SE,140,4.0,4.0,67,0.00,,,0.00,Wunderground v.1.13,2013-06-20 06:34:00,
2013-06-20 00:39:00,71.8,60.2,29.48,SSE,153,2.0,14.0,67,0.00,,,0.00,Wunderground v.1.13,2013-06-20 06:39:00,
2013-06-20 00:44:00,71.6,60.5,29.48,ESE,123,3.0,3.0,68,0.00,,,0.00,Wunderground v.1.13,2013-06-20 06:44:00,
2013-06-20 00:49:00,71.5,60.4,29.48,SSW,205,3.0,3.0,68,0.00,,,0.00,Wunderground v.1.13,2013-06-20 06:49:00,
2013-06-20 00:55:00,71.3,60.6,29.48,SSE,155,3.0,3.0,69,0.00,,,0.00,Wunderground v.1.13,2013-06-20 06:55:00,
2013-06-20 01:00:00,71.3,60.6,29.48,SE,125,3.0,3.0,69,0.00,,,0.00,Wunderground v.1.13,2013-06-20 07:00:00,
2013-06-20 01:05:00,71.1,60.8,29.48,SSE,147,4.0,4.0,70,0.00,,,0.00,Wunderground v.1.13,2013-06-20 07:05:00,
2013-06-20 01:14:00,70.9,61.0,29.48,SE,140,2.0,2.0,71,0.00,,,0.00,Wunderground v.1.13,2013-06-20 07:14:00,
2013-06-20 01:19:00,70.8,60.9,29.49,SSE,153,1.0,1.0,71,0.00,,,0.00,Wunderground v.1.13,2013-06-20 07:19:00,
2013-06-20 01:25:00,70.6,60.7,29.49,SSE,153,0.0,14.0,71,0.00,,,0.00,Wunderground v.1.13,2013-06-20 07:25:00,
2013-06-20 01:29:00,70.6,61.1,29.49,SSE,152,0.0,14.0,72,0.00,,,0.00,Wunderground v.1.13,2013-06-20 07:29:00,
2013-06-20 01:34:00,70.4,60.9,29.50,SSE,152,0.0,14.0,72,0.00,,,0.00,Wunderground v.1.13,2013-06-20 07:34:00,
2013-06-20 01:40:00,70.4,60.9,29.50,NNE,25,0.0,14.0,72,0.00,,,0.00,Wunderground v.1.13,2013-06-20 07:40:00,
2013-06-20 01:45:00,70.6,61.1,29.50,SE,133,0.0,14.0,72,0.00,,,0.00,Wunderground v.1.13,2013-06-20 07:45:00,
2013-06-20 01:50:00,70.6,61.5,29.49,SSE,157,0.0,14.0,73,0.00,,,0.00,Wunderground v.1.13,2013-06-20 07:50:00,
2013-06-20 01:54:00,70.4,61.3,29.49,SE,145,1.0,1.0,73,0.00,,,0.00,Wunderground v.1.13,2013-06-20 07:54:00,
2013-06-20 01:59:00,70.1,61.4,29.49,SSE,165,2.0,16.0,74,0.00,,,0.00,Wunderground v.1.13,2013-06-20 07:59:00,
2013-06-20 02:04:00,70.1,61.4,29.47,South,170,4.0,4.0,74,0.00,,,0.00,Wunderground v.1.13,2013-06-20 08:04:00,
2013-06-20 02:09:00,69.9,61.6,29.47,SE,142,5.0,5.0,75,0.00,,,0.00,Wunderground v.1.13,2013-06-20 08:09:00,
2013-06-20 02:14:00,69.9,61.6,29.47,ESE,119,2.0,2.0,75,0.00,,,0.00,Wunderground v.1.13,2013-06-20 08:14:00,
2013-06-20 02:20:00,69.8,61.5,29.49,West,261,0.0,14.0,75,0.00,,,0.00,Wunderground v.1.13,2013-06-20 08:20:00,
2013-06-20 02:29:00,69.8,61.5,29.49,North,360,0.0,14.0,75,0.00,,,0.00,Wunderground v.1.13,2013-06-20 08:29:00,
2013-06-20 02:34:00,69.8,61.9,29.48,SSE,155,0.0,14.0,76,0.00,,,0.00,Wunderground v.1.13,2013-06-20 08:34:00,
2013-06-20 02:39:00,69.6,61.7,29.48,SE,146,0.0,14.0,76,0.00,,,0.00,Wunderground v.1.13,2013-06-20 08:39:00,
2013-06-20 02:45:00,69.4,61.5,29.48,SSE,163,1.0,1.0,76,0.00,,,0.00,Wunderground v.1.13,2013-06-20 08:45:00,
2013-06-20 02:50:00,69.1,61.2,29.47,SSE,160,1.0,1.0,76,0.00,,,0.00,Wunderground v.1.13,2013-06-20 08:50:00,
2013-06-20 02:55:00,68.9,61.4,29.47,SSE,164,1.0,1.0,77,0.00,,,0.00,Wunderground v.1.13,2013-06-20 08:55:00,
2013-06-20 03:00:00,68.8,61.3,29.47,SSE,164,1.0,1.0,77,0.00,,,0.00,Wunderground v.1.13,2013-06-20 09:00:00,
2013-06-20 03:04:00,68.6,61.1,29.47,SSE,164,0.0,14.0,77,0.00,,,0.00,Wunderground v.1.13,2013-06-20 09:04:00,
2013-06-20 03:09:00,68.4,61.3,29.47,SE,146,0.0,14.0,78,0.00,,,0.00,Wunderground v.1.13,2013-06-20 09:09:00,
2013-06-20 03:14:00,68.1,61.3,29.47,SSE,147,0.0,14.0,79,0.00,,,0.00,Wunderground v.1.13,2013-06-20 09:14:00,
2013-06-20 03:25:00,67.8,61.4,29.45,South,172,1.0,1.0,80,0.00,,,0.00,Wunderground v.1.13,2013-06-20 09:25:00,
2013-06-20 03:30:00,67.4,61.0,29.45,SSE,162,0.0,14.0,80,0.00,,,0.00,Wunderground v.1.13,2013-06-20 09:30:00,
2013-06-20 03:35:00,67.3,61.3,29.46,SSE,162,0.0,14.0,81,0.00,,,0.00,Wunderground v.1.13,2013-06-20 09:35:00,
2013-06-20 03:40:00,66.9,60.9,29.46,SE,135,0.0,14.0,81,0.00,,,0.00,Wunderground v.1.13,2013-06-20 09:40:00,
2013-06-20 03:45:00,66.6,60.9,29.46,SE,138,0.0,14.0,82,0.00,,,0.00,Wunderground v.1.13,2013-06-20 09:45:00,
2013-06-20 03:50:00,66.4,60.7,29.45,SE,138,0.0,14.0,82,0.00,,,0.00,Wunderground v.1.13,2013-06-20 09:50:00,
2013-06-20 03:55:00,66.4,61.1,29.45,SE,141,0.0,14.0,83,0.00,,,0.00,Wunderground v.1.13,2013-06-20 09:55:00,
2013-06-20 04:00:00,66.4,61.1,29.45,SE,146,0.0,14.0,83,0.00,,,0.00,Wunderground v.1.13,2013-06-20 10:00:00,
2013-06-20 04:05:00,66.3,61.0,29.44,ESE,105,0.0,14.0,83,0.00,,,0.00,Wunderground v.1.13,2013-06-20 10:05:00,
2013-06-20 04:10:00,66.1,60.8,29.44,ENE,61,0.0,14.0,83,0.00,,,0.00,Wunderground v.1.13,2013-06-20 10:10:00,
2013-06-20 04:15:00,65.8,60.5,29.44,East,96,0.0,14.0,83,0.00,,,0.00,Wunderground v.1.13,2013-06-20 10:15:00,
2013-06-20 04:20:00,65.6,60.3,29.44,SE,126,0.0,14.0,83,0.00,,,0.00,Wunderground v.1.13,2013-06-20 10:20:00,
2013-06-20 04:25:00,65.5,60.5,29.44,SE,132,0.0,14.0,84,0.00,,,0.00,Wunderground v.1.13,2013-06-20 10:25:00,
2013-06-20 04:30:00,65.3,60.3,29.44,SE,132,0.0,14.0,84,0.00,,,0.00,Wunderground v.1.13,2013-06-20 10:30:00,
2013-06-20 04:35:00,65.2,60.2,29.43,ENE,67,0.0,14.0,84,0.00,,,0.00,Wunderground v.1.13,2013-06-20 10:35:00,
2013-06-20 04:45:00,65.0,60.0,29.43,ESE,107,0.0,14.0,84,0.00,,,0.00,Wunderground v.1.13,2013-06-20 10:45:00,
2013-06-20 04:50:00,65.0,60.4,29.44,ESE,106,0.0,14.0,85,0.00,,,0.00,Wunderground v.1.13,2013-06-20 10:50:00,
2013-06-20 04:55:00,64.8,60.2,29.44,SE,142,0.0,14.0,85,0.00,,,0.00,Wunderground v.1.13,2013-06-20 10:55:00,
2013-06-20 05:00:00,64.7,60.1,29.44,SE,142,0.0,14.0,85,0.00,,,0.00,Wunderground v.1.13,2013-06-20 11:00:00,
2013-06-20 05:05:00,64.5,59.9,29.44,SE,142,0.0,14.0,85,0.00,,,0.00,Wunderground v.1.13,2013-06-20 11:05:00,
2013-06-20 05:10:00,64.3,60.0,29.44,ESE,118,0.0,14.0,86,0.00,,,0.00,Wunderground v.1.13,2013-06-20 11:10:00,
2013-06-20 05:15:00,64.3,60.0,29.44,East,88,0.0,14.0,86,0.00,,,0.00,Wunderground v.1.13,2013-06-20 11:15:00,
2013-06-20 05:20:00,64.2,59.9,29.44,East,90,0.0,14.0,86,0.00,,,0.00,Wunderground v.1.13,2013-06-20 11:20:00,
2013-06-20 05:25:00,64.2,59.9,29.44,ESE,112,0.0,14.0,86,0.00,,,0.00,Wunderground v.1.13,2013-06-20 11:25:00,
2013-06-20 05:30:00,64.2,60.2,29.44,ESE,110,0.0,14.0,87,0.00,,,0.00,Wunderground v.1.13,2013-06-20 11:30:00,
2013-06-20 05:40:00,64.2,60.6,29.46,East,95,0.0,14.0,88,0.00,,,0.00,Wunderground v.1.13,2013-06-20 11:40:00,
2013-06-20 05:45:00,64.5,60.9,29.46,SE,142,0.0,14.0,88,0.00,,,0.00,Wunderground v.1.13,2013-06-20 11:45:00,
2013-06-20 05:50:00,64.5,60.5,29.45,SE,143,0.0,14.0,87,0.00,,,0.00,Wunderground v.1.13,2013-06-20 11:50:00,
2013-06-20 05:55:00,64.5,60.5,29.45,SE,142,0.0,14.0,87,0.00,,,0.00,Wunderground v.1.13,2013-06-20 11:55:00,
2013-06-20 06:00:00,64.7,61.1,29.45,SE,142,0.0,14.0,88,0.00,,,0.00,Wunderground v.1.13,2013-06-20 12:00:00,
2013-06-20 06:05:00,64.7,61.1,29.45,SE,143,0.0,14.0,88,0.00,,,0.00,Wunderground v.1.13,2013-06-20 12:05:00,
2013-06-20 06:10:00,64.7,61.1,29.45,SE,143,0.0,14.0,88,0.00,,,0.00,Wunderground v.1.13,2013-06-20 12:10:00,
2013-06-20 06:15:00,64.8,61.2,29.45,SE,141,0.0,14.0,88,0.00,,,0.00,Wunderground v.1.13,2013-06-20 12:15:00,
2013-06-20 06:20:00,64.8,61.2,29.45,SE,141,0.0,14.0,88,0.00,,,0.00,Wunderground v.1.13,2013-06-20 12:20:00,
2013-06-20 06:25:00,65.0,61.4,29.45,SE,142,0.0,14.0,88,0.00,,,0.00,Wunderground v.1.13,2013-06-20 12:25:00,
2013-06-20 06:30:00,65.2,61.6,29.45,SE,142,0.0,14.0,88,0.00,,,0.00,Wunderground v.1.13,2013-06-20 12:30:00,
2013-06-20 06:35:00,65.3,61.7,29.45,SE,142,0.0,14.0,88,0.00,,,0.00,Wunderground v.1.13,2013-06-20 12:35:00,
2013-06-20 06:40:00,65.5,61.5,29.45,SE,144,0.0,14.0,87,0.00,,,0.00,Wunderground v.1.13,2013-06-20 12:40:00,
2013-06-20 06:45:00,65.6,61.6,29.45,SE,144,0.0,14.0,87,0.00,,,0.00,Wunderground v.1.13,2013-06-20 12:45:00,
2013-06-20 06:50:00,65.8,61.8,29.46,SE,144,0.0,14.0,87,0.00,,,0.00,Wunderground v.1.13,2013-06-20 12:50:00,
2013-06-20 06:55:00,66.0,61.7,29.46,SE,144,0.0,14.0,86,0.00,,,0.00,Wunderground v.1.13,2013-06-20 12:55:00,
2013-06-20 07:00:00,66.1,61.8,29.46,SE,142,0.0,14.0,86,0.00,,,0.00,Wunderground v.1.13,2013-06-20 13:00:00,
2013-06-20 07:05:00,66.3,62.0,29.46,SSE,147,0.0,14.0,86,0.00,,,0.00,Wunderground v.1.13,2013-06-20 13:05:00,
2013-06-20 07:10:00,66.3,61.7,29.46,SE,145,0.0,14.0,85,0.00,,,0.00,Wunderground v.1.13,2013-06-20 13:10:00,
2013-06-20 07:15:00,66.6,61.9,29.46,SE,146,0.0,14.0,85,0.00,,,0.00,Wunderground v.1.13,2013-06-20 13:15:00,
2013-06-20 07:20:00,67.1,62.1,29.47,SE,138,0.0,14.0,84,0.00,,,0.00,Wunderground v.1.13,2013-06-20 13:20:00,
2013-06-20 07:25:00,67.1,61.8,29.47,SSE,163,0.0,14.0,83,0.00,,,0.00,Wunderground v.1.13,2013-06-20 13:25:00,
2013-06-20 07:30:00,67.1,61.8,29.47,SE,146,0.0,14.0,83,0.00,,,0.00,Wunderground v.1.13,2013-06-20 13:30:00,
2013-06-20 07:35:00,67.6,61.9,29.47,SSE,148,0.0,14.0,82,0.00,,,0.00,Wunderground v.1.13,2013-06-20 13:35:00,
2013-06-20 07:40:00,67.9,61.9,29.47,SSE,153,0.0,14.0,81,0.00,,,0.00,Wunderground v.1.13,2013-06-20 13:40:00,
2013-06-20 07:45:00,68.1,61.7,29.47,SSE,163,0.0,14.0,80,0.00,,,0.00,Wunderground v.1.13,2013-06-20 13:45:00,
2013-06-20 07:50:00,68.3,61.9,29.48,SE,145,0.0,14.0,80,0.00,,,0.00,Wunderground v.1.13,2013-06-20 13:50:00,
2013-06-20 07:55:00,68.6,62.2,29.48,SSE,157,0.0,14.0,80,0.00,,,0.00,Wunderground v.1.13,2013-06-20 13:55:00,
2013-06-20 08:00:00,68.6,61.8,29.48,SE,143,0.0,14.0,79,0.00,,,0.00,Wunderground v.1.13,2013-06-20 14:00:00,
2013-06-20 08:05:00,68.8,61.7,29.48,SSE,165,0.0,14.0,78,0.00,,,0.00,Wunderground v.1.13,2013-06-20 14:05:00,
2013-06-20 08:10:00,68.8,61.7,29.48,SSE,159,0.0,14.0,78,0.00,,,0.00,Wunderground v.1.13,2013-06-20 14:10:00,
2013-06-20 08:15:00,69.1,61.9,29.48,SSE,159,0.0,14.0,78,0.00,,,0.00,Wunderground v.1.13,2013-06-20 14:15:00,
2013-06-20 08:20:00,69.3,61.4,29.49,South,175,0.0,14.0,76,0.00,,,0.00,Wunderground v.1.13,2013-06-20 14:20:00,
2013-06-20 08:25:00,69.6,61.7,29.49,South,176,0.0,14.0,76,0.00,,,0.00,Wunderground v.1.13,2013-06-20 14:25:00,
2013-06-20 08:30:00,70.1,62.2,29.49,South,188,0.0,14.0,76,0.00,,,0.00,Wunderground v.1.13,2013-06-20 14:30:00,
2013-06-20 08:35:00,70.1,61.8,29.50,SSW,211,0.0,14.0,75,0.00,,,0.00,Wunderground v.1.13,2013-06-20 14:35:00,
2013-06-20 08:40:00,69.9,61.6,29.50,SSW,198,0.0,14.0,75,0.00,,,0.00,Wunderground v.1.13,2013-06-20 14:40:00,
2013-06-20 08:45:00,70.4,61.7,29.50,SW,232,0.0,14.0,74,0.00,,,0.00,Wunderground v.1.13,2013-06-20 14:45:00,
2013-06-20 08:50:00,70.3,61.6,29.50,SW,230,0.0,14.0,74,0.00,,,0.00,Wunderground v.1.13,2013-06-20 14:50:00,
2013-06-20 08:55:00,70.6,61.9,29.50,SSW,207,0.0,14.0,74,0.00,,,0.00,Wunderground v.1.13,2013-06-20 14:55:00,
2013-06-20 09:00:00,70.8,62.1,29.50,WSW,244,0.0,14.0,74,0.00,,,0.00,Wunderground v.1.13,2013-06-20 15:00:00,
2013-06-20 09:05:00,71.1,62.0,29.50,WSW,246,0.0,14.0,73,0.00,,,0.00,Wunderground v.1.13,2013-06-20 15:05:00,
2013-06-20 09:10:00,71.1,62.0,29.50,WSW,246,0.0,14.0,73,0.00,,,0.00,Wunderground v.1.13,2013-06-20 15:10:00,
2013-06-20 09:15:00,71.6,62.1,29.50,WSW,246,0.0,14.0,72,0.00,,,0.00,Wunderground v.1.13,2013-06-20 15:15:00,
2013-06-20 09:20:00,72.0,62.1,29.50,WSW,246,0.0,14.0,71,0.00,,,0.00,Wunderground v.1.13,2013-06-20 15:20:00,
2013-06-20 09:25:00,72.7,62.3,29.50,WNW,296,0.0,14.0,70,0.00,,,0.00,Wunderground v.1.13,2013-06-20 15:25:00,
2013-06-20 09:30:00,72.8,62.8,29.50,WNW,296,0.0,14.0,71,0.00,,,0.00,Wunderground v.1.13,2013-06-20 15:30:00,
2013-06-20 09:35:00,73.0,63.0,29.50,NNW,340,0.0,14.0,71,0.00,,,0.00,Wunderground v.1.13,2013-06-20 15:35:00,
2013-06-20 09:40:00,73.2,62.8,29.50,NNW,340,0.0,14.0,70,0.00,,,0.00,Wunderground v.1.13,2013-06-20 15:40:00,
2013-06-20 09:45:00,73.2,62.8,29.50,NW,315,0.0,14.0,70,0.00,,,0.00,Wunderground v.1.13,2013-06-20 15:45:00,
2013-06-20 09:50:00,72.8,62.4,29.50,WNW,300,0.0,14.0,70,0.00,,,0.00,Wunderground v.1.13,2013-06-20 15:50:00,
2013-06-20 09:55:00,73.0,62.6,29.50,NNW,328,0.0,14.0,70,0.00,,,0.00,Wunderground v.1.13,2013-06-20 15:55:00,
2013-06-20 10:00:00,73.5,63.1,29.50,NNW,329,0.0,14.0,70,0.00,,,0.00,Wunderground v.1.13,2013-06-20 16:00:00,
2013-06-20 10:05:00,73.7,62.9,29.50,NNW,331,0.0,14.0,69,0.00,,,0.00,Wunderground v.1.13,2013-06-20 16:05:00,
2013-06-20 10:10:00,74.0,61.9,29.50,NNW,333,0.0,14.0,66,0.00,,,0.00,Wunderground v.1.13,2013-06-20 16:10:00,
2013-06-20 10:15:00,74.7,62.6,29.50,North,360,0.0,14.0,66,0.00,,,0.00,Wunderground v.1.13,2013-06-20 16:15:00,
2013-06-20 10:25:00,76.5,63.0,29.50,North,350,0.0,14.0,63,0.00,,,0.00,Wunderground v.1.13,2013-06-20 16:25:00,
2013-06-20 10:35:00,76.3,62.3,29.51,North,351,1.0,1.0,62,0.00,,,0.00,Wunderground v.1.13,2013-06-20 16:35:00,
2013-06-20 10:40:00,75.8,61.8,29.51,NNW,348,1.0,1.0,62,0.00,,,0.00,Wunderground v.1.13,2013-06-20 16:40:00,
2013-06-20 10:45:00,76.0,62.5,29.51,NE,54,1.0,1.0,63,0.00,,,0.00,Wunderground v.1.13,2013-06-20 16:45:00,
2013-06-20 10:50:00,76.0,62.5,29.51,North,11,1.0,1.0,63,0.00,,,0.00,Wunderground v.1.13,2013-06-20 16:50:00,
2013-06-20 10:55:00,76.1,63.0,29.51,North,360,1.0,1.0,64,0.00,,,0.00,Wunderground v.1.13,2013-06-20 16:55:00,
2013-06-20 11:00:00,76.5,63.0,29.51,NE,36,0.0,14.0,63,0.00,,,0.00,Wunderground v.1.13,2013-06-20 17:00:00,
2013-06-20 11:10:00,76.7,62.2,29.51,North,360,1.0,1.0,61,0.00,,,0.00,Wunderground v.1.13,2013-06-20 17:10:00,
2013-06-20 11:15:00,77.2,64.1,29.51,NNW,348,1.0,1.0,64,0.00,,,0.00,Wunderground v.1.13,2013-06-20 17:15:00,
2013-06-20 11:20:00,77.2,62.7,29.51,NE,48,1.0,1.0,61,0.00,,,0.00,Wunderground v.1.13,2013-06-20 17:20:00,
2013-06-20 11:25:00,77.6,63.1,29.51,NE,44,1.0,1.0,61,0.00,,,0.00,Wunderground v.1.13,2013-06-20 17:25:00,
2013-06-20 11:30:00,78.1,64.0,29.51,NNE,19,1.0,1.0,62,0.00,,,0.00,Wunderground v.1.13,2013-06-20 17:30:00,
2013-06-20 11:35:00,78.1,63.1,29.50,NNW,329,1.0,1.0,60,0.00,,,0.00,Wunderground v.1.13,2013-06-20 17:35:00,
2013-06-20 11:40:00,77.9,63.4,29.50,North,350,1.0,1.0,61,0.00,,,0.00,Wunderground v.1.13,2013-06-20 17:40:00,
2013-06-20 11:45:00,78.3,63.3,29.50,NNE,25,0.0,14.0,60,0.00,,,0.00,Wunderground v.1.13,2013-06-20 17:45:00,
2013-06-20 11:50:00,78.8,62.8,29.51,North,11,1.0,14.0,58,0.00,,,0.00,Wunderground v.1.13,2013-06-20 17:50:00,
2013-06-20 11:55:00,78.8,63.7,29.51,North,5,2.0,2.0,60,0.00,,,0.00,Wunderground v.1.13,2013-06-20 17:55:00,
2013-06-20 12:00:00,79.4,63.8,29.51,NE,40,1.0,1.0,59,0.00,,,0.00,Wunderground v.1.13,2013-06-20 18:00:00,
2013-06-20 12:05:00,79.6,63.0,29.50,North,351,1.0,1.0,57,0.00,,,0.00,Wunderground v.1.13,2013-06-20 18:05:00,
2013-06-20 12:10:00,79.4,63.3,29.50,NNE,23,2.0,2.0,58,0.00,,,0.00,Wunderground v.1.13,2013-06-20 18:10:00,
2013-06-20 12:15:00,79.6,63.0,29.50,NNE,30,2.0,2.0,57,0.00,,,0.00,Wunderground v.1.13,2013-06-20 18:15:00,
2013-06-20 12:20:00,79.4,62.8,29.51,East,86,2.0,2.0,57,0.00,,,0.00,Wunderground v.1.13,2013-06-20 18:20:00,
2013-06-20 12:25:00,79.4,62.8,29.51,North,360,1.0,14.0,57,0.00,,,0.00,Wunderground v.1.13,2013-06-20 18:25:00,
2013-06-20 12:30:00,80.1,63.5,29.51,NNE,21,2.0,14.0,57,0.00,,,0.00,Wunderground v.1.13,2013-06-20 18:30:00,
2013-06-20 12:35:00,80.7,63.5,29.51,NNE,24,1.0,1.0,56,0.00,,,0.00,Wunderground v.1.13,2013-06-20 18:35:00,
2013-06-20 12:40:00,80.9,62.2,29.51,ENE,58,1.0,1.0,53,0.00,,,0.00,Wunderground v.1.13,2013-06-20 18:40:00,
2013-06-20 12:45:00,80.9,62.7,29.51,NE,42,2.0,2.0,54,0.00,,,0.00,Wunderground v.1.13,2013-06-20 18:45:00,
2013-06-20 12:50:00,80.7,62.5,29.51,ENE,58,2.0,2.0,54,0.00,,,0.00,Wunderground v.1.13,2013-06-20 18:50:00,
2013-06-20 13:00:00,80.3,63.2,29.51,NE,46,1.0,1.0,56,0.00,,,0.00,Wunderground v.1.13,2013-06-20 19:00:00,
2013-06-20 13:05:00,80.5,63.4,29.51,ESE,119,1.0,1.0,56,0.00,,,0.00,Wunderground v.1.13,2013-06-20 19:05:00,
2013-06-20 13:10:00,81.1,62.9,29.51,ESE,119,0.0,14.0,54,0.00,,,0.00,Wunderground v.1.13,2013-06-20 19:10:00,
2013-06-20 13:15:00,81.2,63.5,29.51,NNE,26,1.0,14.0,55,0.00,,,0.00,Wunderground v.1.13,2013-06-20 19:15:00,
2013-06-20 13:20:00,81.4,63.7,29.50,NE,44,2.0,14.0,55,0.00,,,0.00,Wunderground v.1.13,2013-06-20 19:20:00,
2013-06-20 13:30:00,81.8,64.1,29.50,NNE,16,2.0,2.0,55,0.00,,,0.00,Wunderground v.1.13,2013-06-20 19:30:00,
2013-06-20 13:35:00,81.8,63.5,29.50,NE,53,2.0,2.0,54,0.00,,,0.00,Wunderground v.1.13,2013-06-20 19:35:00,
2013-06-20 13:40:00,82.4,64.6,29.50,NE,53,1.0,1.0,55,0.00,,,0.00,Wunderground v.1.13,2013-06-20 19:40:00,
2013-06-20 13:45:00,82.8,63.9,29.50,ENE,61,2.0,14.0,53,0.00,,,0.00,Wunderground v.1.13,2013-06-20 19:45:00,
2013-06-20 13:50:00,82.6,63.2,29.50,East,87,3.0,3.0,52,0.00,,,0.00,Wunderground v.1.13,2013-06-20 19:50:00,
2013-06-20 13:55:00,82.6,63.7,29.50,ENE,62,4.0,14.0,53,0.00,,,0.00,Wunderground v.1.13,2013-06-20 19:55:00,
2013-06-20 14:00:00,82.0,63.7,29.50,ENE,60,4.0,4.0,54,0.00,,,0.00,Wunderground v.1.13,2013-06-20 20:00:00,
2013-06-20 14:10:00,82.4,64.1,29.50,NNE,22,4.0,4.0,54,0.00,,,0.00,Wunderground v.1.13,2013-06-20 20:10:00,
2013-06-20 14:15:00,82.8,63.4,29.50,NE,53,3.0,14.0,52,0.00,,,0.00,Wunderground v.1.13,2013-06-20 20:15:00,
2013-06-20 14:20:00,82.8,64.5,29.50,NNE,28,3.0,14.0,54,0.00,,,0.00,Wunderground v.1.13,2013-06-20 20:20:00,
2013-06-20 14:25:00,83.0,64.1,29.50,NE,45,4.0,4.0,53,0.00,,,0.00,Wunderground v.1.13,2013-06-20 20:25:00,
2013-06-20 14:30:00,82.4,63.5,29.50,ENE,71,5.0,5.0,53,0.00,,,0.00,Wunderground v.1.13,2013-06-20 20:30:00,
2013-06-20 14:35:00,82.2,63.9,29.50,East,80,5.0,5.0,54,0.00,,,0.00,Wunderground v.1.13,2013-06-20 20:35:00,
2013-06-20 14:45:00,82.0,63.7,29.50,NE,34,6.0,6.0,54,0.00,,,0.00,Wunderground v.1.13,2013-06-20 20:45:00,
2013-06-20 14:50:00,81.8,63.5,29.50,NE,45,6.0,6.0,54,0.00,,,0.00,Wunderground v.1.13,2013-06-20 20:50:00,
2013-06-20 14:55:00,82.2,63.9,29.50,NE,49,6.0,6.0,54,0.00,,,0.00,Wunderground v.1.13,2013-06-20 20:55:00,
2013-06-20 15:00:00,82.6,64.3,29.50,NE,34,5.0,5.0,54,0.00,,,0.00,Wunderground v.1.13,2013-06-20 21:00:00,
2013-06-20 15:05:00,82.4,63.0,29.50,NE,53,5.0,5.0,52,0.00,,,0.00,Wunderground v.1.13,2013-06-20 21:05:00,
2013-06-20 15:10:00,82.8,63.4,29.50,NNE,19,4.0,4.0,52,0.00,,,0.00,Wunderground v.1.13,2013-06-20 21:10:00,
2013-06-20 15:15:00,83.4,63.9,29.50,ENE,57,3.0,14.0,52,0.00,,,0.00,Wunderground v.1.13,2013-06-20 21:15:00,
2013-06-20 15:20:00,83.0,63.0,29.49,ENE,59,4.0,14.0,51,0.00,,,0.00,Wunderground v.1.13,2013-06-20 21:20:00,
2013-06-20 15:25:00,83.2,63.7,29.49,North,10,4.0,14.0,52,0.00,,,0.00,Wunderground v.1.13,2013-06-20 21:25:00,
2013-06-20 15:30:00,83.2,63.7,29.49,NE,44,4.0,4.0,52,0.00,,,0.00,Wunderground v.1.13,2013-06-20 21:30:00,
2013-06-20 15:35:00,83.2,63.2,29.49,ENE,60,4.0,4.0,51,0.00,,,0.00,Wunderground v.1.13,2013-06-20 21:35:00,
2013-06-20 15:40:00,83.8,63.7,29.49,NNE,28,3.0,14.0,51,0.00,,,0.00,Wunderground v.1.13,2013-06-20 21:40:00,
2013-06-20 15:45:00,83.8,64.8,29.49,NNE,13,4.0,14.0,53,0.00,,,0.00,Wunderground v.1.13,2013-06-20 21:45:00,
2013-06-20 15:50:00,83.8,63.7,29.49,NNE,20,4.0,4.0,51,0.00,,,0.00,Wunderground v.1.13,2013-06-20 21:50:00,
2013-06-20 15:55:00,83.6,63.6,29.49,NNE,26,4.0,4.0,51,0.00,,,0.00,Wunderground v.1.13,2013-06-20 21:55:00,
2013-06-20 16:05:00,84.7,63.4,29.49,ENE,59,2.0,14.0,49,0.00,,,0.00,Wunderground v.1.13,2013-06-20 22:05:00,
2013-06-20 16:15:00,84.0,64.5,29.49,NE,52,4.0,4.0,52,0.00,,,0.00,Wunderground v.1.13,2013-06-20 22:15:00,
2013-06-20 16:20:00,84.7,64.6,29.49,NE,51,2.0,2.0,51,0.00,,,0.00,Wunderground v.1.13,2013-06-20 22:20:00,
2013-06-20 16:25:00,84.5,63.8,29.49,NE,51,3.0,14.0,50,0.00,,,0.00,Wunderground v.1.13,2013-06-20 22:25:00,
2013-06-20 16:30:00,84.5,63.8,29.49,NE,49,3.0,3.0,50,0.00,,,0.00,Wunderground v.1.13,2013-06-20 22:30:00,
2013-06-20 16:35:00,84.7,65.1,29.49,NNE,28,2.0,2.0,52,0.00,,,0.00,Wunderground v.1.13,2013-06-20 22:35:00,
2013-06-20 16:40:00,85.1,64.4,29.49,NE,35,2.0,14.0,50,0.00,,,0.00,Wunderground v.1.13,2013-06-20 22:40:00,
2013-06-20 16:45:00,85.1,64.9,29.49,NNE,22,2.0,14.0,51,0.00,,,0.00,Wunderground v.1.13,2013-06-20 22:45:00,
2013-06-20 16:50:00,85.3,64.6,29.49,NNE,22,2.0,14.0,50,0.00,,,0.00,Wunderground v.1.13,2013-06-20 22:50:00,
2013-06-20 16:55:00,84.9,64.2,29.49,NNE,16,3.0,3.0,50,0.00,,,0.00,Wunderground v.1.13,2013-06-20 22:55:00,
2013-06-20 17:00:00,84.9,64.2,29.49,North,9,3.0,3.0,50,0.00,,,0.00,Wunderground v.1.13,2013-06-20 23:00:00,
2013-06-20 17:05:00,85.5,63.6,29.48,NNW,348,2.0,2.0,48,0.00,,,0.00,Wunderground v.1.13,2013-06-20 23:05:00,
2013-06-20 17:10:00,85.5,64.2,29.48,NNW,348,2.0,2.0,49,0.00,,,0.00,Wunderground v.1.13,2013-06-20 23:10:00,
2013-06-20 17:15:00,85.7,64.3,29.48,North,360,2.0,14.0,49,0.00,,,0.00,Wunderground v.1.13,2013-06-20 23:15:00,
2013-06-20 17:20:00,85.1,64.4,29.48,NNW,342,3.0,14.0,50,0.00,,,0.00,Wunderground v.1.13,2013-06-20 23:20:00,
2013-06-20 17:25:00,84.5,64.4,29.48,North,11,5.0,5.0,51,0.00,,,0.00,Wunderground v.1.13,2013-06-20 23:25:00,
2013-06-20 17:30:00,84.5,64.9,29.48,North,350,4.0,14.0,52,0.00,,,0.00,Wunderground v.1.13,2013-06-20 23:30:00,
2013-06-20 17:35:00,84.3,64.8,29.48,North,360,4.0,14.0,52,0.00,,,0.00,Wunderground v.1.13,2013-06-20 23:35:00,
2013-06-20 17:40:00,84.3,64.2,29.48,NNW,329,4.0,14.0,51,0.00,,,0.00,Wunderground v.1.13,2013-06-20 23:40:00,
2013-06-20 17:45:00,84.3,64.8,29.48,NNW,342,3.0,14.0,52,0.00,,,0.00,Wunderground v.1.13,2013-06-20 23:45:00,
2013-06-20 17:50:00,84.1,64.0,29.48,NNW,338,3.0,14.0,51,0.00,,,0.00,Wunderground v.1.13,2013-06-20 23:50:00,
2013-06-20 17:55:00,84.1,64.6,29.48,NNE,32,3.0,14.0,52,0.00,,,0.00,Wunderground v.1.13,2013-06-20 23:55:00,
2013-06-20 18:00:00,83.8,64.8,29.48,NNE,17,4.0,14.0,53,0.00,,,0.00,Wunderground v.1.13,2013-06-21 00:00:00,
2013-06-20 18:05:00,83.6,64.1,29.48,North,360,5.0,5.0,52,0.00,,,0.00,Wunderground v.1.13,2013-06-21 00:05:00,
2013-06-20 18:15:00,83.6,64.7,29.48,North,360,3.0,14.0,53,0.00,,,0.00,Wunderground v.1.13,2013-06-21 00:15:00,
2013-06-20 18:20:00,83.6,65.2,29.48,North,360,4.0,14.0,54,0.00,,,0.00,Wunderground v.1.13,2013-06-21 00:20:00,
2013-06-20 18:25:00,83.6,65.2,29.48,NNE,19,3.0,14.0,54,0.00,,,0.00,Wunderground v.1.13,2013-06-21 00:25:00,
2013-06-20 18:30:00,83.6,65.2,29.48,North,350,3.0,3.0,54,0.00,,,0.00,Wunderground v.1.13,2013-06-21 00:30:00,
2013-06-20 18:35:00,83.6,65.2,29.48,NNE,15,3.0,14.0,54,0.00,,,0.00,Wunderground v.1.13,2013-06-21 00:35:00,
2013-06-20 18:40:00,83.6,65.7,29.48,NNE,20,2.0,2.0,55,0.00,,,0.00,Wunderground v.1.13,2013-06-21 00:40:00,
2013-06-20 18:45:00,83.4,65.0,29.48,NNW,339,2.0,14.0,54,0.00,,,0.00,Wunderground v.1.13,2013-06-21 00:45:00,
2013-06-20 18:50:00,83.2,65.4,29.48,North,360,3.0,3.0,55,0.00,,,0.00,Wunderground v.1.13,2013-06-21 00:50:00,
2013-06-20 18:55:00,83.0,65.7,29.48,North,5,2.0,2.0,56,0.00,,,0.00,Wunderground v.1.13,2013-06-21 00:55:00,
2013-06-20 19:00:00,83.2,65.4,29.48,NNW,344,1.0,14.0,55,0.00,,,0.00,Wunderground v.1.13,2013-06-21 01:00:00,
2013-06-20 19:05:00,82.8,65.5,29.48,North,10,1.0,14.0,56,0.00,,,0.00,Wunderground v.1.13,2013-06-21 01:05:00,
2013-06-20 19:10:00,82.6,65.3,29.48,NNW,336,1.0,14.0,56,0.00,,,0.00,Wunderground v.1.13,2013-06-21 01:10:00,
2013-06-20 19:20:00,82.0,65.8,29.47,North,351,0.0,14.0,58,0.00,,,0.00,Wunderground v.1.13,2013-06-21 01:20:00,
2013-06-20 19:25:00,81.6,65.9,29.47,North,350,0.0,14.0,59,0.00,,,0.00,Wunderground v.1.13,2013-06-21 01:25:00,
2013-06-20 19:30:00,81.2,66.0,29.47,North,360,0.0,14.0,60,0.00,,,0.00,Wunderground v.1.13,2013-06-21 01:30:00,
2013-06-20 19:35:00,81.1,65.9,29.48,North,360,0.0,14.0,60,0.00,,,0.00,Wunderground v.1.13,2013-06-21 01:35:00,
2013-06-20 19:40:00,80.7,66.0,29.48,North,360,0.0,14.0,61,0.00,,,0.00,Wunderground v.1.13,2013-06-21 01:40:00,
2013-06-20 19:50:00,80.1,66.4,29.48,North,360,0.0,14.0,63,0.00,,,0.00,Wunderground v.1.13,2013-06-21 01:50:00,
2013-06-20 20:00:00,79.2,66.0,29.48,North,360,0.0,14.0,64,0.00,,,0.00,Wunderground v.1.13,2013-06-21 02:00:00,
2013-06-20 20:10:00,78.3,66.0,29.48,North,360,0.0,14.0,66,0.00,,,0.00,Wunderground v.1.13,2013-06-21 02:10:00,
2013-06-20 20:15:00,77.7,65.9,29.48,North,360,0.0,14.0,67,0.00,,,0.00,Wunderground v.1.13,2013-06-21 02:15:00,
2013-06-20 20:20:00,77.4,65.6,29.48,North,360,0.0,14.0,67,0.00,,,0.00,Wunderground v.1.13,2013-06-21 02:20:00,
2013-06-20 20:25:00,76.8,65.9,29.48,North,360,0.0,14.0,69,0.00,,,0.00,Wunderground v.1.13,2013-06-21 02:25:00,
2013-06-20 20:30:00,76.3,65.8,29.48,North,360,0.0,14.0,70,0.00,,,0.00,Wunderground v.1.13,2013-06-21 02:30:00,
2013-06-20 20:35:00,76.0,65.9,29.48,NNE,17,0.0,14.0,71,0.00,,,0.00,Wunderground v.1.13,2013-06-21 02:35:00,
2013-06-20 20:40:00,75.6,65.5,29.48,NNE,17,0.0,14.0,71,0.00,,,0.00,Wunderground v.1.13,2013-06-21 02:40:00,
2013-06-20 20:45:00,75.3,65.6,29.48,North,10,0.0,14.0,72,0.00,,,0.00,Wunderground v.1.13,2013-06-21 02:45:00,
2013-06-20 20:50:00,75.3,65.6,29.47,NNE,13,0.0,14.0,72,0.00,,,0.00,Wunderground v.1.13,2013-06-21 02:50:00,
2013-06-20 20:55:00,75.3,65.6,29.47,NNE,22,1.0,14.0,72,0.00,,,0.00,Wunderground v.1.13,2013-06-21 02:55:00,
2013-06-20 21:00:00,75.6,65.1,29.47,NNE,33,3.0,14.0,70,0.00,,,0.00,Wunderground v.1.13,2013-06-21 03:00:00,
2013-06-20 21:05:00,76.0,65.5,29.45,NNE,17,3.0,3.0,70,0.00,,,0.00,Wunderground v.1.13,2013-06-21 03:05:00,
2013-06-20 21:10:00,76.1,65.2,29.45,NNE,30,2.0,14.0,69,0.00,,,0.00,Wunderground v.1.13,2013-06-21 03:10:00,
2013-06-20 21:15:00,76.1,65.6,29.45,NE,36,2.0,2.0,70,0.00,,,0.00,Wunderground v.1.13,2013-06-21 03:15:00,
2013-06-20 21:20:00,76.0,65.5,29.46,NNE,19,1.0,1.0,70,0.00,,,0.00,Wunderground v.1.13,2013-06-21 03:20:00,
2013-06-20 21:25:00,75.8,65.3,29.46,NE,46,0.0,14.0,70,0.00,,,0.00,Wunderground v.1.13,2013-06-21 03:25:00,
2013-06-20 21:30:00,75.6,65.5,29.46,NE,45,0.0,14.0,71,0.00,,,0.00,Wunderground v.1.13,2013-06-21 03:30:00,
2013-06-20 21:35:00,75.4,65.3,29.48,NE,42,0.0,14.0,71,0.00,,,0.00,Wunderground v.1.13,2013-06-21 03:35:00,
2013-06-20 21:40:00,75.4,65.3,29.48,NE,46,0.0,14.0,71,0.00,,,0.00,Wunderground v.1.13,2013-06-21 03:40:00,
2013-06-20 21:45:00,75.4,65.3,29.48,ENE,67,0.0,14.0,71,0.00,,,0.00,Wunderground v.1.13,2013-06-21 03:45:00,
2013-06-20 21:50:00,75.4,65.3,29.49,ENE,67,0.0,14.0,71,0.00,,,0.00,Wunderground v.1.13,2013-06-21 03:50:00,
2013-06-20 21:55:00,75.4,65.3,29.49,ENE,66,0.0,14.0,71,0.00,,,0.00,Wunderground v.1.13,2013-06-21 03:55:00,
2013-06-20 22:00:00,75.3,65.6,29.49,ENE,66,0.0,14.0,72,0.00,,,0.00,Wunderground v.1.13,2013-06-21 04:00:00,
2013-06-20 22:05:00,75.1,65.5,29.49,ENE,66,0.0,14.0,72,0.00,,,0.00,Wunderground v.1.13,2013-06-21 04:05:00,
2013-06-20 22:10:00,75.1,65.5,29.49,ENE,67,0.0,14.0,72,0.00,,,0.00,Wunderground v.1.13,2013-06-21 04:10:00,
2013-06-20 22:15:00,75.1,65.5,29.49,ENE,68,0.0,14.0,72,0.00,,,0.00,Wunderground v.1.13,2013-06-21 04:15:00,
2013-06-20 22:20:00,75.1,65.9,29.50,ENE,72,0.0,14.0,73,0.00,,,0.00,Wunderground v.1.13,2013-06-21 04:20:00,
2013-06-20 22:25:00,74.9,65.7,29.50,ENE,72,0.0,14.0,73,0.00,,,0.00,Wunderground v.1.13,2013-06-21 04:25:00,
2013-06-20 22:30:00,74.7,65.5,29.50,ENE,72,0.0,14.0,73,0.00,,,0.00,Wunderground v.1.13,2013-06-21 04:30:00,
2013-06-20 22:35:00,74.7,65.5,29.49,ENE,72,0.0,14.0,73,0.00,,,0.00,Wunderground v.1.13,2013-06-21 04:35:00,
2013-06-20 22:40:00,74.6,65.8,29.49,ENE,72,0.0,14.0,74,0.00,,,0.00,Wunderground v.1.13,2013-06-21 04:40:00,
2013-06-20 22:50:00,74.4,65.6,29.49,ENE,71,0.0,14.0,74,0.00,,,0.00,Wunderground v.1.13,2013-06-21 04:50:00,
2013-06-20 22:55:00,74.2,65.8,29.49,ENE,66,0.0,14.0,75,0.00,,,0.00,Wunderground v.1.13,2013-06-21 04:55:00,
2013-06-20 23:00:00,73.9,65.5,29.49,ENE,66,0.0,14.0,75,0.00,,,0.00,Wunderground v.1.13,2013-06-21 05:00:00,
2013-06-20 23:05:00,73.7,65.7,29.49,ENE,66,0.0,14.0,76,0.00,,,0.00,Wunderground v.1.13,2013-06-21 05:05:00,
2013-06-20 23:10:00,73.5,65.5,29.49,ENE,66,0.0,14.0,76,0.00,,,0.00,Wunderground v.1.13,2013-06-21 05:10:00,
2013-06-20 23:15:00,73.2,65.6,29.49,ENE,66,0.0,14.0,77,0.00,,,0.00,Wunderground v.1.13,2013-06-21 05:15:00,
2013-06-20 23:20:00,73.0,65.4,29.48,ENE,66,0.0,14.0,77,0.00,,,0.00,Wunderground v.1.13,2013-06-21 05:20:00,
2013-06-20 23:25:00,72.8,65.5,29.48,ENE,66,0.0,14.0,78,0.00,,,0.00,Wunderground v.1.13,2013-06-21 05:25:00,
2013-06-20 23:30:00,72.8,65.5,29.48,ENE,66,0.0,14.0,78,0.00,,,0.00,Wunderground v.1.13,2013-06-21 05:30:00,
2013-06-20 23:35:00,73.0,65.7,29.48,ENE,66,0.0,14.0,78,0.00,,,0.00,Wunderground v.1.13,2013-06-21 05:35:00,
2013-06-20 23:40:00,73.0,65.7,29.48,ENE,66,0.0,14.0,78,0.00,,,0.00,Wunderground v.1.13,2013-06-21 05:40:00,
2013-06-20 23:50:00,72.7,65.8,29.48,ENE,66,0.0,14.0,79,0.00,,,0.00,Wunderground v.1.13,2013-06-21 05:50:00,
2013-06-20 23:55:00,72.3,65.4,29.48,ENE,66,0.0,14.0,79,0.00,,,0.00,Wunderground v.1.13,2013-06-21 05:55:00,